createdAt,value
2023-05-09T00:02:09.570Z,18.20
2023-05-09T00:04:37.271Z,18.18
2023-05-09T00:07:04.882Z,18.08
2023-05-09T00:09:32.435Z,17.35
2023-05-09T00:11:59.979Z,17.41
2023-05-09T00:14:27.907Z,17.54
2023-05-09T00:16:56.856Z,17.30
2023-05-09T00:19:24.572Z,17.04
2023-05-09T00:21:52.196Z,17.07
2023-05-09T00:24:20.044Z,16.44
2023-05-09T00:26:47.886Z,16.30
2023-05-09T00:29:15.527Z,16.45
2023-05-09T00:31:43.081Z,17.19
2023-05-09T00:34:11.989Z,17.02
2023-05-09T00:36:39.570Z,16.97
2023-05-09T00:39:07.466Z,16.90
2023-05-09T00:41:35.331Z,16.77
2023-05-09T00:44:03.179Z,16.59
2023-05-09T00:46:31.046Z,16.90
2023-05-09T00:49:00.617Z,16.74
2023-05-09T00:51:29.933Z,16.53
2023-05-09T00:53:57.670Z,16.16
2023-05-09T00:56:25.668Z,15.94
2023-05-09T00:58:54.177Z,15.92
2023-05-09T01:01:22.732Z,15.85
2023-05-09T01:03:54.853Z,15.73
2023-05-09T01:06:36.497Z,15.68
2023-05-09T01:09:15.155Z,15.72
2023-05-09T01:11:55.151Z,15.86
2023-05-09T01:14:33.666Z,15.93
2023-05-09T01:17:11.212Z,15.94
2023-05-09T01:19:59.919Z,16.16
2023-05-09T01:22:32.537Z,16.07
2023-05-09T01:25:26.305Z,16.05
2023-05-09T01:28:05.069Z,16.04
2023-05-09T01:30:37.800Z,15.90
2023-05-09T01:33:08.001Z,15.87
2023-05-09T01:35:39.535Z,15.80
2023-05-09T01:38:13.484Z,15.78
2023-05-09T01:40:43.933Z,15.67
2023-05-09T01:43:16.470Z,15.65
2023-05-09T01:45:47.486Z,15.66
2023-05-09T01:48:16.684Z,15.64
2023-05-09T01:50:46.480Z,15.77
2023-05-09T01:53:17.177Z,15.70
2023-05-09T01:55:50.005Z,15.67
2023-05-09T01:58:20.246Z,15.71
2023-05-09T02:00:51.700Z,15.70
2023-05-09T02:03:20.882Z,15.62
2023-05-09T02:05:50.291Z,15.58
2023-05-09T02:08:20.201Z,15.53
2023-05-09T02:10:48.891Z,15.45
2023-05-09T02:13:16.766Z,15.43
2023-05-09T02:15:45.575Z,15.51
2023-05-09T02:18:14.709Z,15.54
2023-05-09T02:20:42.739Z,15.51
2023-05-09T02:23:11.160Z,15.45
2023-05-09T02:25:40.366Z,15.41
2023-05-09T02:28:09.381Z,15.36
2023-05-09T02:30:42.841Z,15.43
2023-05-09T02:33:14.600Z,15.44
2023-05-09T02:35:45.973Z,15.32
2023-05-09T02:38:15.357Z,15.37
2023-05-09T02:40:43.547Z,15.38
2023-05-09T02:43:11.579Z,15.48
2023-05-09T02:45:39.231Z,15.51
2023-05-09T02:48:08.955Z,15.57
2023-05-09T02:50:38.565Z,15.46
2023-05-09T02:53:06.285Z,15.49
2023-05-09T02:55:33.998Z,15.57
2023-05-09T02:58:11.969Z,15.44
2023-05-09T03:00:42.070Z,15.41
2023-05-09T03:03:10.014Z,15.35
2023-05-09T03:05:39.246Z,15.22
2023-05-09T03:08:06.878Z,15.13
2023-05-09T03:10:34.944Z,15.12
2023-05-09T03:13:02.636Z,15.07
2023-05-09T03:15:30.421Z,15.09
2023-05-09T03:17:58.167Z,15.02
2023-05-09T03:20:26.149Z,15.00
2023-05-09T03:22:55.069Z,15.02
2023-05-09T03:25:23.056Z,14.95
2023-05-09T03:27:50.817Z,14.90
2023-05-09T03:30:18.488Z,14.95
2023-05-09T03:32:46.133Z,14.89
2023-05-09T03:35:13.995Z,14.81
2023-05-09T03:37:41.661Z,14.79
2023-05-09T03:40:11.562Z,14.70
2023-05-09T03:42:39.089Z,14.67
2023-05-09T03:45:07.843Z,14.66
2023-05-09T03:47:35.465Z,14.70
2023-05-09T03:50:03.390Z,14.77
2023-05-09T03:52:31.319Z,14.86
2023-05-09T03:54:58.985Z,14.98
2023-05-09T03:57:27.992Z,14.86
2023-05-09T04:00:03.222Z,14.83
2023-05-09T04:02:34.409Z,15.01
2023-05-09T04:05:02.469Z,15.00
2023-05-09T04:07:30.105Z,14.96
2023-05-09T04:09:57.855Z,15.03
2023-05-09T04:12:25.747Z,15.23
2023-05-09T04:14:54.825Z,14.96
2023-05-09T04:17:22.520Z,14.80
2023-05-09T04:19:50.374Z,14.86
2023-05-09T04:22:18.390Z,14.82
2023-05-09T04:24:46.324Z,14.84
2023-05-09T04:27:14.091Z,14.63
2023-05-09T04:29:41.938Z,14.64
2023-05-09T04:32:11.173Z,14.63
2023-05-09T04:34:39.135Z,14.69
2023-05-09T04:37:06.754Z,14.65
2023-05-09T04:39:34.402Z,14.59
2023-05-09T04:42:02.198Z,14.64
2023-05-09T04:44:30.025Z,14.70
2023-05-09T04:46:57.924Z,14.80
2023-05-09T04:49:26.852Z,14.73
2023-05-09T04:51:54.485Z,14.70
2023-05-09T04:54:22.333Z,14.75
2023-05-09T04:56:50.761Z,14.71
2023-05-09T04:59:18.552Z,14.67
2023-05-09T05:01:46.280Z,14.68
2023-05-09T05:04:13.954Z,14.68
2023-05-09T05:06:42.891Z,14.77
2023-05-09T05:09:10.549Z,14.73
2023-05-09T05:11:38.187Z,14.77
2023-05-09T05:14:05.760Z,14.82
2023-05-09T05:16:33.623Z,14.77
2023-05-09T05:19:01.394Z,15.02
2023-05-09T05:21:29.088Z,15.32
2023-05-09T05:23:58.667Z,15.59
2023-05-09T05:26:26.618Z,15.93
2023-05-09T05:28:55.179Z,16.18
2023-05-09T05:31:23.347Z,16.99
2023-05-09T05:33:50.997Z,16.87
2023-05-09T05:36:23.061Z,17.40
2023-05-09T05:38:50.721Z,17.21
2023-05-09T05:41:19.880Z,17.21
2023-05-09T05:43:47.495Z,17.35
2023-05-09T05:46:15.099Z,17.50
2023-05-09T05:48:42.900Z,17.11
2023-05-09T05:51:11.735Z,17.73
2023-05-09T05:53:39.367Z,17.05
2023-05-09T05:56:07.522Z,17.09
2023-05-09T05:58:36.486Z,17.13
2023-05-09T06:01:04.745Z,17.97
2023-05-09T06:03:32.452Z,18.84
2023-05-09T06:06:00.424Z,18.44
2023-05-09T06:08:28.137Z,18.76
2023-05-09T06:10:55.836Z,18.72
2023-05-09T06:13:23.579Z,18.61
2023-05-09T06:15:57.705Z,16.83
2023-05-09T06:18:28.340Z,17.05
2023-05-09T06:20:56.039Z,16.99
2023-05-09T06:23:23.712Z,17.26
2023-05-09T06:25:51.300Z,17.25
2023-05-09T06:28:18.930Z,18.44
2023-05-09T06:30:46.832Z,19.21
2023-05-09T06:33:18.160Z,19.38
2023-05-09T06:35:46.923Z,19.19
2023-05-09T06:38:14.516Z,20.13
2023-05-09T06:40:42.106Z,19.27
2023-05-09T06:43:09.778Z,18.96
2023-05-09T06:45:37.879Z,18.01
2023-05-09T06:48:07.426Z,17.91
2023-05-09T06:50:37.349Z,17.65
2023-05-09T06:53:07.156Z,18.02
2023-05-09T06:55:35.024Z,17.92
2023-05-09T06:58:05.483Z,18.84
2023-05-09T07:00:34.171Z,18.78
2023-05-09T07:03:01.935Z,19.98
2023-05-09T07:05:29.705Z,19.79
2023-05-09T07:07:58.752Z,18.57
2023-05-09T07:10:26.414Z,18.98
2023-05-09T07:12:54.105Z,19.43
2023-05-09T07:15:36.888Z,20.27
2023-05-09T07:18:08.750Z,20.11
2023-05-09T07:20:36.622Z,19.48
2023-05-09T07:23:05.618Z,19.18
2023-05-09T07:25:33.395Z,19.80
2023-05-09T07:28:01.081Z,18.99
2023-05-09T07:30:28.889Z,18.46
2023-05-09T07:32:56.648Z,18.98
2023-05-09T07:35:24.309Z,19.17
2023-05-09T07:37:51.910Z,20.17
2023-05-09T07:40:20.961Z,20.03
2023-05-09T07:42:48.754Z,20.15
2023-05-09T07:45:16.975Z,19.81
2023-05-09T07:47:45.156Z,19.68
2023-05-09T07:50:12.947Z,19.68
2023-05-09T07:52:40.613Z,20.32
2023-05-09T07:55:09.147Z,21.43
2023-05-09T07:57:38.427Z,20.87
2023-05-09T08:00:08.520Z,20.32
2023-05-09T08:02:36.469Z,20.21
2023-05-09T08:05:05.179Z,19.51
2023-05-09T08:07:32.755Z,19.47
2023-05-09T08:10:00.534Z,19.68
2023-05-09T08:12:28.633Z,19.81
2023-05-09T08:14:57.633Z,20.30
2023-05-09T08:17:25.328Z,20.59
2023-05-09T08:19:52.968Z,20.59
2023-05-09T08:22:20.558Z,20.14
2023-05-09T08:24:48.632Z,19.55
2023-05-09T08:27:16.368Z,19.56
2023-05-09T08:29:46.965Z,19.06
2023-05-09T08:32:16.182Z,19.13
2023-05-09T08:34:44.099Z,18.99
2023-05-09T08:37:13.729Z,18.56
2023-05-09T08:39:44.936Z,19.53
2023-05-09T08:42:13.327Z,19.26
2023-05-09T08:44:40.996Z,18.90
2023-05-09T08:47:09.504Z,18.79
2023-05-09T08:49:40.650Z,19.27
2023-05-09T08:52:09.030Z,18.37
2023-05-09T08:54:36.672Z,18.51
2023-05-09T08:57:04.987Z,18.92
2023-05-09T08:59:35.200Z,18.26
2023-05-09T09:02:06.228Z,18.10
2023-05-09T09:04:34.687Z,17.78
2023-05-09T09:07:06.740Z,17.88
2023-05-09T09:09:37.002Z,18.13
2023-05-09T09:12:09.684Z,18.17
2023-05-09T09:14:46.171Z,18.56
2023-05-09T09:17:18.508Z,18.86
2023-05-09T09:19:49.735Z,19.25
2023-05-09T09:22:21.307Z,19.26
2023-05-09T09:24:50.135Z,19.09
2023-05-09T09:27:18.068Z,19.55
2023-05-09T09:29:46.782Z,20.01
2023-05-09T09:32:14.637Z,20.50
2023-05-09T09:34:42.366Z,19.87
2023-05-09T09:37:21.225Z,20.33
2023-05-09T09:39:57.069Z,21.10
2023-05-09T09:42:25.567Z,21.14
2023-05-09T09:44:57.303Z,20.85
2023-05-09T09:47:31.530Z,21.17
2023-05-09T09:50:10.045Z,21.66
2023-05-09T09:52:41.434Z,20.95
2023-05-09T09:55:10.845Z,21.87
2023-05-09T09:57:39.488Z,21.04
2023-05-09T10:00:09.123Z,20.84
2023-05-09T10:02:46.866Z,21.22
2023-05-09T10:05:18.872Z,20.93
2023-05-09T10:07:49.623Z,21.66
2023-05-09T10:10:18.591Z,21.53
2023-05-09T10:12:47.840Z,20.83
2023-05-09T10:15:18.806Z,20.61
2023-05-09T10:17:46.583Z,20.16
2023-05-09T10:20:17.548Z,19.93
2023-05-09T10:22:46.750Z,20.89
2023-05-09T10:25:22.275Z,20.48
2023-05-09T10:27:56.553Z,19.80
2023-05-09T10:30:31.442Z,20.20
2023-05-09T10:33:07.950Z,19.12
2023-05-09T10:35:40.008Z,19.09
2023-05-09T10:38:08.067Z,18.31
2023-05-09T10:40:37.623Z,18.21
2023-05-09T10:43:05.454Z,18.83
2023-05-09T10:45:34.119Z,19.18
2023-05-09T10:48:03.233Z,18.61
2023-05-09T10:50:31.746Z,17.70
2023-05-09T10:53:09.838Z,17.65
2023-05-09T10:55:49.917Z,17.35
2023-05-09T10:58:25.912Z,17.27
2023-05-09T11:00:57.336Z,17.27
2023-05-09T11:03:26.345Z,17.26
2023-05-09T11:05:57.564Z,16.93
2023-05-09T11:08:28.103Z,16.65
2023-05-09T11:10:59.486Z,16.66
2023-05-09T11:13:32.330Z,16.97
2023-05-09T11:16:09.355Z,16.71
2023-05-09T11:18:51.503Z,17.13
2023-05-09T11:21:22.158Z,18.27
2023-05-09T11:23:52.950Z,18.66
2023-05-09T11:26:29.740Z,18.76
2023-05-09T11:28:59.709Z,18.68
2023-05-09T11:31:27.650Z,18.84
2023-05-09T11:34:03.332Z,19.29
2023-05-09T11:36:31.977Z,19.26
2023-05-09T11:39:02.564Z,19.12
2023-05-09T11:41:39.068Z,18.57
2023-05-09T11:44:14.568Z,18.73
2023-05-09T11:46:42.664Z,19.58
2023-05-09T11:49:11.974Z,18.54
2023-05-09T11:51:41.264Z,19.54
2023-05-09T11:54:09.491Z,19.15
2023-05-09T11:56:41.118Z,19.58
2023-05-09T11:59:08.900Z,20.22
2023-05-09T12:01:36.574Z,20.12
2023-05-09T12:04:06.729Z,20.22
2023-05-09T12:06:46.401Z,18.91
2023-05-09T12:09:15.450Z,19.20
2023-05-09T12:11:50.266Z,19.69
2023-05-09T12:14:28.373Z,19.14
2023-05-09T12:16:56.283Z,18.29
2023-05-09T12:19:25.508Z,17.70
2023-05-09T12:21:56.210Z,17.60
2023-05-09T12:24:25.777Z,18.17
2023-05-09T12:26:58.028Z,18.85
2023-05-09T12:29:27.209Z,18.56
2023-05-09T12:31:55.673Z,18.17
2023-05-09T12:34:23.723Z,18.61
2023-05-09T12:36:51.352Z,18.47
2023-05-09T12:39:20.201Z,19.15
2023-05-09T12:42:00.569Z,18.40
2023-05-09T12:44:30.743Z,17.75
2023-05-09T12:47:00.927Z,18.05
2023-05-09T12:49:30.935Z,18.14
2023-05-09T12:52:02.974Z,17.93
2023-05-09T12:54:36.122Z,18.08
2023-05-09T12:57:03.867Z,18.81
2023-05-09T12:59:32.862Z,19.47
2023-05-09T13:02:01.041Z,18.28
2023-05-09T13:04:29.816Z,18.01
2023-05-09T13:06:58.174Z,18.10
2023-05-09T13:09:26.964Z,17.86
2023-05-09T13:11:54.639Z,18.34
2023-05-09T13:14:24.868Z,18.09
2023-05-09T13:16:54.033Z,17.50
2023-05-09T13:19:21.786Z,17.36
2023-05-09T13:21:49.525Z,17.54
2023-05-09T13:24:17.348Z,17.47
2023-05-09T13:26:47.414Z,17.14
2023-05-09T13:29:14.980Z,17.41
2023-05-09T13:31:42.525Z,17.26
2023-05-09T13:34:11.462Z,16.98
2023-05-09T13:36:39.208Z,16.71
2023-05-09T13:39:06.890Z,17.49
2023-05-09T13:41:36.276Z,17.81
2023-05-09T13:44:05.386Z,17.82
2023-05-09T13:46:33.334Z,18.21
2023-05-09T13:49:01.148Z,18.86
2023-05-09T13:51:30.124Z,17.46
2023-05-09T13:53:57.806Z,17.25
2023-05-09T13:56:25.747Z,17.31
2023-05-09T13:58:53.385Z,17.54
2023-05-09T14:01:21.155Z,17.72
2023-05-09T14:03:48.766Z,18.23
2023-05-09T14:06:16.527Z,18.33
2023-05-09T14:08:45.483Z,16.90
2023-05-09T14:11:15.427Z,17.04
2023-05-09T14:13:43.149Z,17.24
2023-05-09T14:16:11.426Z,17.84
2023-05-09T14:18:39.214Z,17.34
2023-05-09T14:21:07.122Z,16.99
2023-05-09T14:23:35.354Z,17.63
2023-05-09T14:26:04.404Z,16.65
2023-05-09T14:28:31.990Z,16.79
2023-05-09T14:31:00.719Z,15.93
2023-05-09T14:33:28.594Z,15.97
2023-05-09T14:35:56.192Z,15.75
2023-05-09T14:38:26.251Z,15.85
2023-05-09T14:40:53.992Z,15.86
2023-05-09T14:43:25.373Z,16.11
2023-05-09T14:45:54.890Z,16.02
2023-05-09T14:48:24.047Z,16.90
2023-05-09T14:50:51.838Z,16.71
2023-05-09T14:53:19.685Z,17.56
2023-05-09T14:55:47.288Z,17.10
2023-05-09T14:58:15.272Z,18.01
2023-05-09T15:00:44.271Z,18.35
2023-05-09T15:03:12.311Z,18.57
2023-05-09T15:05:45.864Z,18.36
2023-05-09T15:08:13.502Z,18.35
2023-05-09T15:10:41.614Z,17.55
2023-05-09T15:13:11.371Z,18.03
2023-05-09T15:15:40.443Z,17.84
2023-05-09T15:18:09.900Z,18.05
2023-05-09T15:20:37.595Z,18.40
2023-05-09T15:23:05.713Z,17.68
2023-05-09T15:25:34.468Z,17.85
2023-05-09T15:28:04.968Z,18.06
2023-05-09T15:30:37.341Z,17.68
2023-05-09T15:33:06.131Z,17.79
2023-05-09T15:35:35.144Z,17.57
2023-05-09T15:38:05.162Z,17.92
2023-05-09T15:40:32.696Z,18.08
2023-05-09T15:43:00.267Z,17.92
2023-05-09T15:45:28.071Z,17.66
2023-05-09T15:47:55.666Z,17.62
2023-05-09T15:50:23.783Z,17.96
2023-05-09T15:52:52.784Z,18.03
2023-05-09T15:55:20.560Z,18.23
2023-05-09T15:57:48.478Z,17.71
2023-05-09T16:00:16.884Z,18.00
2023-05-09T16:02:45.391Z,17.97
2023-05-09T16:05:13.131Z,18.08
2023-05-09T16:07:45.350Z,18.15
2023-05-09T16:10:14.609Z,17.67
2023-05-09T16:12:42.484Z,17.82
2023-05-09T16:15:11.121Z,17.94
2023-05-09T16:17:38.682Z,17.65
2023-05-09T16:20:09.879Z,17.71
2023-05-09T16:22:37.469Z,17.78
2023-05-09T16:25:07.791Z,17.90
2023-05-09T16:27:36.992Z,17.74
2023-05-09T16:30:06.153Z,17.14
2023-05-09T16:32:34.305Z,17.20
2023-05-09T16:35:02.317Z,17.23
2023-05-09T16:37:29.913Z,16.98
2023-05-09T16:39:58.141Z,16.91
2023-05-09T16:42:25.792Z,17.16
2023-05-09T16:44:55.190Z,16.77
2023-05-09T16:47:23.149Z,16.71
2023-05-09T16:49:51.052Z,16.70
2023-05-09T16:52:18.630Z,16.69
2023-05-09T16:54:46.182Z,16.47
2023-05-09T16:57:13.718Z,16.44
2023-05-09T16:59:42.917Z,16.88
2023-05-09T17:02:11.846Z,16.71
2023-05-09T17:04:39.501Z,16.56
2023-05-09T17:07:07.361Z,16.59
2023-05-09T17:09:35.213Z,16.74
2023-05-09T17:12:03.199Z,16.92
2023-05-09T17:14:33.114Z,16.89
2023-05-09T17:17:00.672Z,16.65
2023-05-09T17:19:29.607Z,16.38
2023-05-09T17:21:57.298Z,16.23
2023-05-09T17:24:25.325Z,16.25
2023-05-09T17:26:52.951Z,16.33
2023-05-09T17:29:20.580Z,16.39
2023-05-09T17:31:48.242Z,16.67
2023-05-09T17:34:15.880Z,16.44
2023-05-09T17:36:47.217Z,16.38
2023-05-09T17:39:17.085Z,16.51
2023-05-09T17:41:45.184Z,16.18
2023-05-09T17:44:12.746Z,16.10
2023-05-09T17:46:40.352Z,16.04
2023-05-09T17:49:07.916Z,15.85
2023-05-09T17:51:35.525Z,15.95
2023-05-09T17:54:04.717Z,16.00
2023-05-09T17:56:32.706Z,15.99
2023-05-09T17:59:00.357Z,15.92
2023-05-09T18:01:28.092Z,15.67
2023-05-09T18:03:55.881Z,15.80
2023-05-09T18:06:24.843Z,15.81
2023-05-09T18:08:52.557Z,16.05
2023-05-09T18:11:22.871Z,16.25
2023-05-09T18:13:50.671Z,16.38
2023-05-09T18:16:18.524Z,16.43
2023-05-09T18:18:47.566Z,16.22
2023-05-09T18:21:15.569Z,16.10
2023-05-09T18:23:43.180Z,16.24
2023-05-09T18:26:11.078Z,16.09
2023-05-09T18:28:41.020Z,16.27
2023-05-09T18:31:09.778Z,16.65
2023-05-09T18:33:39.669Z,16.51
2023-05-09T18:36:09.050Z,16.69
2023-05-09T18:38:37.544Z,17.00
2023-05-09T18:41:06.024Z,17.01
2023-05-09T18:43:34.037Z,16.80
2023-05-09T18:46:02.989Z,16.68
2023-05-09T18:48:30.607Z,16.63
2023-05-09T18:50:58.235Z,16.42
2023-05-09T18:53:26.595Z,16.52
2023-05-09T18:55:54.796Z,16.24
2023-05-09T18:58:22.404Z,16.16
2023-05-09T19:00:51.194Z,16.13
2023-05-09T19:03:20.321Z,16.09
2023-05-09T19:05:48.083Z,16.03
2023-05-09T19:08:15.661Z,16.23
2023-05-09T19:10:43.311Z,16.14
2023-05-09T19:13:11.962Z,16.19
2023-05-09T19:15:41.215Z,16.43
2023-05-09T19:18:08.914Z,16.56
2023-05-09T19:20:37.948Z,16.70
2023-05-09T19:23:05.516Z,16.91
2023-05-09T19:25:33.252Z,17.15
2023-05-09T19:28:00.820Z,16.86
2023-05-09T19:30:28.396Z,16.75
2023-05-09T19:32:56.187Z,17.48
2023-05-09T19:35:24.004Z,17.54
2023-05-09T19:37:52.928Z,17.17
2023-05-09T19:40:20.721Z,16.89
2023-05-09T19:42:48.266Z,16.32
2023-05-09T19:45:15.858Z,16.27
2023-05-09T19:47:43.787Z,16.00
2023-05-09T19:50:11.429Z,16.03
2023-05-09T19:52:39.471Z,16.16
2023-05-09T19:55:09.692Z,15.83
2023-05-09T19:57:37.232Z,15.86
2023-05-09T20:00:05.852Z,15.92
2023-05-09T20:02:33.730Z,15.72
2023-05-09T20:05:01.391Z,15.59
2023-05-09T20:07:28.991Z,15.66
2023-05-09T20:09:56.579Z,15.81
2023-05-09T20:12:26.424Z,15.95
2023-05-09T20:14:55.521Z,15.67
2023-05-09T20:17:23.237Z,15.28
2023-05-09T20:19:50.898Z,15.51
2023-05-09T20:22:18.494Z,15.24
2023-05-09T20:24:46.067Z,15.07
2023-05-09T20:27:13.687Z,14.98
2023-05-09T20:29:42.611Z,15.02
2023-05-09T20:32:10.282Z,15.16
2023-05-09T20:34:37.942Z,14.98
2023-05-09T20:37:06.047Z,15.07
2023-05-09T20:39:33.802Z,15.16
2023-05-09T20:42:01.385Z,15.16
2023-05-09T20:44:30.054Z,15.16
2023-05-09T20:46:58.982Z,15.27
2023-05-09T20:49:26.651Z,15.46
2023-05-09T20:51:54.209Z,15.39
2023-05-09T20:54:21.917Z,15.41
2023-05-09T20:56:49.577Z,15.80
2023-05-09T20:59:17.170Z,15.92
2023-05-09T21:01:44.745Z,15.70
2023-05-09T21:04:13.741Z,15.83
2023-05-09T21:06:41.363Z,15.64
2023-05-09T21:09:09.082Z,15.81
2023-05-09T21:11:36.712Z,15.84
2023-05-09T21:14:04.379Z,15.77
2023-05-09T21:16:32.016Z,15.71
2023-05-09T21:18:59.728Z,15.72
2023-05-09T21:21:29.076Z,15.72
2023-05-09T21:23:56.745Z,15.56
2023-05-09T21:26:24.382Z,15.69
2023-05-09T21:28:52.005Z,15.48
2023-05-09T21:31:19.821Z,15.49
2023-05-09T21:33:47.405Z,15.57
2023-05-09T21:36:15.551Z,15.54
2023-05-09T21:38:44.507Z,15.42
2023-05-09T21:41:12.587Z,15.48
2023-05-09T21:43:40.139Z,15.42
2023-05-09T21:46:07.831Z,15.43
2023-05-09T21:48:35.436Z,15.42
2023-05-09T21:51:03.884Z,15.45
2023-05-09T21:53:31.705Z,15.52
2023-05-09T21:56:00.626Z,15.50
2023-05-09T21:58:28.655Z,15.46
2023-05-09T22:00:56.773Z,15.53
2023-05-09T22:03:24.624Z,15.57
2023-05-09T22:05:52.370Z,15.53
2023-05-09T22:08:19.986Z,15.52
2023-05-09T22:10:47.550Z,15.46
2023-05-09T22:13:16.511Z,15.41
2023-05-09T22:15:44.509Z,15.38
2023-05-09T22:18:12.172Z,15.30
2023-05-09T22:20:39.759Z,15.28
2023-05-09T22:23:07.294Z,15.23
2023-05-09T22:25:35.274Z,15.13
2023-05-09T22:28:02.972Z,15.18
2023-05-09T22:30:31.995Z,15.26
2023-05-09T22:33:00.283Z,15.27
2023-05-09T22:35:28.237Z,15.29
2023-05-09T22:37:55.925Z,15.28
2023-05-09T22:40:23.550Z,15.28
2023-05-09T22:42:51.134Z,15.39
2023-05-09T22:45:19.675Z,15.44
2023-05-09T22:47:48.701Z,15.47
2023-05-09T22:50:17.365Z,15.51
2023-05-09T22:52:45.216Z,15.44
2023-05-09T22:55:12.881Z,15.36
2023-05-09T22:57:41.128Z,15.28
2023-05-09T23:00:09.825Z,15.25
2023-05-09T23:02:37.675Z,15.18
2023-05-09T23:05:07.559Z,15.16
2023-05-09T23:07:35.536Z,15.11
2023-05-09T23:10:03.968Z,14.97
2023-05-09T23:12:31.668Z,14.80
2023-05-09T23:14:59.408Z,14.79
2023-05-09T23:17:27.107Z,14.63
2023-05-09T23:19:54.815Z,14.52
2023-05-09T23:22:23.742Z,14.52
2023-05-09T23:24:51.331Z,14.53
2023-05-09T23:27:18.932Z,14.46
2023-05-09T23:29:46.539Z,14.46
2023-05-09T23:32:14.163Z,14.58
2023-05-09T23:34:41.714Z,14.58
2023-05-09T23:37:09.290Z,14.64
2023-05-09T23:39:39.345Z,14.60
2023-05-09T23:42:06.983Z,14.68
2023-05-09T23:44:34.646Z,14.83
2023-05-09T23:47:02.528Z,14.82
2023-05-09T23:49:30.195Z,14.98
2023-05-09T23:51:57.767Z,14.98
2023-05-09T23:54:25.592Z,15.11
2023-05-09T23:56:54.608Z,15.23
2023-05-09T23:59:22.311Z,15.15
